createdAt,value
2018-08-07T00:00:16.032Z,0.00
2018-08-07T00:01:16.060Z,0.00
2018-08-07T00:02:16.107Z,0.00
2018-08-07T00:03:16.110Z,0.00
2018-08-07T00:04:16.122Z,0.00
2018-08-07T00:05:16.149Z,0.00
2018-08-07T00:06:16.175Z,0.00
2018-08-07T00:07:16.188Z,0.00
2018-08-07T00:08:16.214Z,0.00
2018-08-07T00:09:16.240Z,0.00
2018-08-07T00:10:16.265Z,0.00
2018-08-07T00:11:16.278Z,0.00
2018-08-07T00:12:16.317Z,0.00
2018-08-07T00:13:16.331Z,0.00
2018-08-07T00:14:16.358Z,0.00
2018-08-07T00:15:16.370Z,0.00
2018-08-07T00:16:16.396Z,0.00
2018-08-07T00:17:16.422Z,0.00
2018-08-07T00:18:16.449Z,0.00
2018-08-07T00:19:16.473Z,0.00
2018-08-07T00:20:16.487Z,0.00
2018-08-07T00:21:16.513Z,0.00
2018-08-07T00:22:16.527Z,0.00
2018-08-07T00:23:16.554Z,0.00
2018-08-07T00:24:16.579Z,0.00
2018-08-07T00:25:16.606Z,0.00
2018-08-07T00:26:16.618Z,0.00
2018-08-07T00:27:16.644Z,0.00
2018-08-07T00:28:16.670Z,0.00
2018-08-07T00:29:16.695Z,0.00
2018-08-07T00:30:16.719Z,0.00
2018-08-07T00:31:16.738Z,0.00
2018-08-07T00:32:16.761Z,0.00
2018-08-07T00:33:16.774Z,0.00
2018-08-07T00:34:16.805Z,0.00
2018-08-07T00:35:16.826Z,0.00
2018-08-07T00:36:16.852Z,0.00
2018-08-07T00:37:16.867Z,0.00
2018-08-07T00:38:16.891Z,0.00
2018-08-07T00:39:16.936Z,0.00
2018-08-07T00:40:16.932Z,0.00
2018-08-07T00:41:16.957Z,0.00
2018-08-07T00:42:16.984Z,0.00
2018-08-07T00:43:17.011Z,0.00
2018-08-07T00:44:17.023Z,0.00
2018-08-07T00:45:17.052Z,0.00
2018-08-07T00:46:17.075Z,0.00
2018-08-07T00:47:17.089Z,0.00
2018-08-07T00:48:17.113Z,0.00
2018-08-07T00:49:17.140Z,0.00
2018-08-07T00:50:17.165Z,0.00
2018-08-07T00:51:17.184Z,0.00
2018-08-07T00:52:17.208Z,0.00
2018-08-07T00:53:17.232Z,0.00
2018-08-07T00:54:17.247Z,0.00
2018-08-07T00:55:17.283Z,0.00
2018-08-07T00:56:17.298Z,0.00
2018-08-07T00:57:17.384Z,0.00
2018-08-07T00:58:17.336Z,0.00
2018-08-07T00:59:17.362Z,0.00
2018-08-07T01:00:17.389Z,0.00
2018-08-07T01:01:17.401Z,0.00
2018-08-07T01:02:17.440Z,0.00
2018-08-07T01:03:17.452Z,0.00
2018-08-07T01:04:17.479Z,0.00
2018-08-07T01:05:17.492Z,0.00
2018-08-07T01:06:17.518Z,0.00
2018-08-07T01:07:17.544Z,0.00
2018-08-07T01:08:17.559Z,0.00
2018-08-07T01:09:17.583Z,0.00
2018-08-07T01:10:17.609Z,0.00
2018-08-07T01:11:17.634Z,0.00
2018-08-07T01:12:17.648Z,0.00
2018-08-07T01:13:17.677Z,0.00
2018-08-07T01:14:17.702Z,0.00
2018-08-07T01:15:17.714Z,0.00
2018-08-07T01:16:17.740Z,0.00
2018-08-07T01:17:17.767Z,0.00
2018-08-07T01:18:17.791Z,0.00
2018-08-07T01:19:17.807Z,0.00
2018-08-07T01:20:17.832Z,0.00
2018-08-07T01:21:17.858Z,0.00
2018-08-07T01:22:17.871Z,0.00
2018-08-07T01:23:17.910Z,0.00
2018-08-07T01:24:17.926Z,0.00
2018-08-07T01:25:17.938Z,0.00
2018-08-07T01:26:17.963Z,0.00
2018-08-07T01:27:17.989Z,0.00
2018-08-07T01:28:18.015Z,0.00
2018-08-07T01:29:18.028Z,0.00
2018-08-07T01:30:18.067Z,0.00
2018-08-07T01:31:18.079Z,0.00
2018-08-07T01:32:18.095Z,0.00
2018-08-07T01:33:18.120Z,0.00
2018-08-07T01:34:18.145Z,0.00
2018-08-07T01:35:18.158Z,0.00
2018-08-07T01:36:18.185Z,0.00
2018-08-07T01:37:18.213Z,0.00
2018-08-07T01:38:18.250Z,0.00
2018-08-07T01:39:18.251Z,0.00
2018-08-07T01:40:18.276Z,0.00
2018-08-07T01:41:18.302Z,0.00
2018-08-07T01:42:18.315Z,0.00
2018-08-07T01:43:18.341Z,0.00
2018-08-07T01:44:18.368Z,0.00
2018-08-07T01:45:18.381Z,0.00
2018-08-07T01:46:18.407Z,0.00
2018-08-07T01:47:18.437Z,0.00
2018-08-07T01:48:18.446Z,0.00
2018-08-07T01:49:18.472Z,0.00
2018-08-07T01:50:18.501Z,0.00
2018-08-07T01:51:18.524Z,0.00
2018-08-07T01:52:18.541Z,0.00
2018-08-07T01:53:18.565Z,0.00
2018-08-07T01:54:18.591Z,0.00
2018-08-07T01:55:18.602Z,0.00
2018-08-07T01:56:18.629Z,0.00
2018-08-07T01:57:18.655Z,0.00
2018-08-07T01:58:18.668Z,0.00
2018-08-07T01:59:18.695Z,0.00
2018-08-07T02:00:18.723Z,0.00
2018-08-07T02:01:18.735Z,0.00
2018-08-07T02:02:18.759Z,0.00
2018-08-07T02:03:18.785Z,0.00
2018-08-07T02:04:18.811Z,0.00
2018-08-07T02:05:18.825Z,0.00
2018-08-07T02:06:18.851Z,0.00
2018-08-07T02:07:18.876Z,0.00
2018-08-07T02:08:18.890Z,0.00
2018-08-07T02:09:18.916Z,0.00
2018-08-07T02:10:18.941Z,0.00
2018-08-07T02:11:18.957Z,0.00
2018-08-07T02:12:18.982Z,0.00
2018-08-07T02:13:19.008Z,0.00
2018-08-07T02:14:19.022Z,0.00
2018-08-07T02:15:19.047Z,0.00
2018-08-07T02:16:19.072Z,0.00
2018-08-07T02:17:19.087Z,0.00
2018-08-07T02:18:19.113Z,0.00
2018-08-07T02:19:19.139Z,0.00
2018-08-07T02:20:19.167Z,0.00
2018-08-07T02:21:19.178Z,0.00
2018-08-07T02:22:19.217Z,0.00
2018-08-07T02:23:19.229Z,0.00
2018-08-07T02:24:19.245Z,0.00
2018-08-07T02:25:19.269Z,0.00
2018-08-07T02:26:19.295Z,0.00
2018-08-07T02:27:19.311Z,0.00
2018-08-07T02:28:19.336Z,0.00
2018-08-07T02:29:19.373Z,0.00
2018-08-07T02:30:19.375Z,0.00
2018-08-07T02:31:19.400Z,0.00
2018-08-07T02:32:19.426Z,0.00
2018-08-07T02:33:19.438Z,0.00
2018-08-07T02:34:19.466Z,0.00
2018-08-07T02:35:19.506Z,0.00
2018-08-07T02:36:19.507Z,0.00
2018-08-07T02:37:19.530Z,0.00
2018-08-07T02:38:19.556Z,0.00
2018-08-07T02:39:19.569Z,0.00
2018-08-07T02:40:19.594Z,0.00
2018-08-07T02:41:19.621Z,0.00
2018-08-07T02:42:19.637Z,0.00
2018-08-07T02:43:19.661Z,0.00
2018-08-07T02:44:19.687Z,0.00
2018-08-07T02:45:19.700Z,0.00
2018-08-07T02:46:19.726Z,0.00
2018-08-07T02:47:19.752Z,0.00
2018-08-07T02:48:19.766Z,0.00
2018-08-07T02:49:19.794Z,0.00
2018-08-07T02:50:19.817Z,0.00
2018-08-07T02:51:19.831Z,0.00
2018-08-07T02:52:19.858Z,0.00
2018-08-07T02:53:19.884Z,0.00
2018-08-07T02:54:19.898Z,0.00
2018-08-07T02:55:19.923Z,0.00
2018-08-07T02:56:19.949Z,0.00
2018-08-07T02:57:19.962Z,4.00
2018-08-07T02:58:19.991Z,4.00
2018-08-07T02:59:20.013Z,4.00
2018-08-07T03:00:20.041Z,4.00
2018-08-07T03:01:20.054Z,4.00
2018-08-07T03:02:20.080Z,4.00
2018-08-07T03:03:20.092Z,4.00
2018-08-07T03:04:20.118Z,8.00
2018-08-07T03:05:20.151Z,4.00
2018-08-07T03:06:20.159Z,8.00
2018-08-07T03:07:20.185Z,8.00
2018-08-07T03:08:20.211Z,8.00
2018-08-07T03:09:20.225Z,12.00
2018-08-07T03:10:20.249Z,12.00
2018-08-07T03:11:20.276Z,12.00
2018-08-07T03:12:20.289Z,16.00
2018-08-07T03:13:20.315Z,16.00
2018-08-07T03:14:20.347Z,20.00
2018-08-07T03:15:20.363Z,24.00
2018-08-07T03:16:20.381Z,28.00
2018-08-07T03:17:20.407Z,32.00
2018-08-07T03:18:20.432Z,36.00
2018-08-07T03:19:20.447Z,40.00
2018-08-07T03:20:20.473Z,48.00
2018-08-07T03:21:20.485Z,52.00
2018-08-07T03:22:20.510Z,60.00
2018-08-07T03:23:20.536Z,68.00
2018-08-07T03:24:20.556Z,76.00
2018-08-07T03:25:20.578Z,84.00
2018-08-07T03:26:20.602Z,96.00
2018-08-07T03:27:20.615Z,108.00
2018-08-07T03:28:20.641Z,120.00
2018-08-07T03:29:20.667Z,132.00
2018-08-07T03:30:20.682Z,144.00
2018-08-07T03:31:20.707Z,160.00
2018-08-07T03:32:20.733Z,180.00
2018-08-07T03:33:20.759Z,196.00
2018-08-07T03:34:20.772Z,216.00
2018-08-07T03:35:20.797Z,236.00
2018-08-07T03:36:20.812Z,256.00
2018-08-07T03:37:20.839Z,280.00
2018-08-07T03:38:20.864Z,304.00
2018-08-07T03:39:20.877Z,328.00
2018-08-07T03:40:20.922Z,352.00
2018-08-07T03:41:20.934Z,380.00
2018-08-07T03:42:20.942Z,408.00
2018-08-07T03:43:20.969Z,440.00
2018-08-07T03:44:20.995Z,464.00
2018-08-07T03:45:21.008Z,492.00
2018-08-07T03:46:21.046Z,524.00
2018-08-07T03:47:21.059Z,556.00
2018-08-07T03:48:21.074Z,592.00
2018-08-07T03:49:21.178Z,624.00
2018-08-07T03:50:21.127Z,656.00
2018-08-07T03:51:21.138Z,688.00
2018-08-07T03:52:21.164Z,716.00
2018-08-07T03:53:21.203Z,744.00
2018-08-07T03:54:21.204Z,768.00
2018-08-07T03:55:21.231Z,796.00
2018-08-07T03:56:21.256Z,824.00
2018-08-07T03:57:21.269Z,856.00
2018-08-07T03:58:21.295Z,896.00
2018-08-07T03:59:21.321Z,940.00
2018-08-07T04:00:21.336Z,988.00
2018-08-07T04:01:21.361Z,1044.00
2018-08-07T04:02:21.386Z,1084.00
2018-08-07T04:03:21.403Z,1120.00
2018-08-07T04:04:21.426Z,1152.00
2018-08-07T04:05:21.452Z,1180.00
2018-08-07T04:06:21.470Z,1212.00
2018-08-07T04:07:21.491Z,1244.00
2018-08-07T04:08:21.522Z,1276.00
2018-08-07T04:09:21.532Z,1304.00
2018-08-07T04:10:21.556Z,1332.00
2018-08-07T04:11:21.584Z,1360.00
2018-08-07T04:12:21.599Z,1396.00
2018-08-07T04:13:21.622Z,1428.00
2018-08-07T04:14:21.648Z,1464.00
2018-08-07T04:15:21.661Z,1504.00
2018-08-07T04:16:21.687Z,1540.00
2018-08-07T04:17:21.717Z,1576.00
2018-08-07T04:18:21.727Z,1600.00
2018-08-07T04:19:21.753Z,1628.00
2018-08-07T04:20:21.779Z,1656.00
2018-08-07T04:21:21.792Z,1684.00
2018-08-07T04:22:21.822Z,1716.00
2018-08-07T04:23:21.844Z,1740.00
2018-08-07T04:24:21.859Z,1768.00
2018-08-07T04:25:21.884Z,1792.00
2018-08-07T04:26:21.909Z,1820.00
2018-08-07T04:27:21.926Z,1848.00
2018-08-07T04:28:21.957Z,1876.00
2018-08-07T04:29:21.975Z,1904.00
2018-08-07T04:30:21.993Z,1928.00
2018-08-07T04:31:22.016Z,1956.00
2018-08-07T04:32:22.045Z,1980.00
2018-08-07T04:33:22.055Z,2008.00
2018-08-07T04:34:22.132Z,2036.00
2018-08-07T04:35:22.105Z,2064.00
2018-08-07T04:36:22.121Z,2088.00
2018-08-07T04:37:22.149Z,2112.00
2018-08-07T04:38:22.172Z,2140.00
2018-08-07T04:39:22.185Z,2168.00
2018-08-07T04:40:22.211Z,2192.00
2018-08-07T04:41:22.237Z,2216.00
2018-08-07T04:42:22.264Z,2244.00
2018-08-07T04:43:22.277Z,2268.00
2018-08-07T04:44:22.302Z,2292.00
2018-08-07T04:45:22.328Z,2320.00
2018-08-07T04:46:22.342Z,2344.00
2018-08-07T04:47:22.367Z,2368.00
2018-08-07T04:48:22.393Z,2392.00
2018-08-07T04:49:22.407Z,2416.00
2018-08-07T04:50:22.433Z,2444.00
2018-08-07T04:51:22.458Z,2468.00
2018-08-07T04:52:22.471Z,2488.00
2018-08-07T04:53:22.497Z,2516.00
2018-08-07T04:54:22.523Z,2540.00
2018-08-07T04:55:22.538Z,2564.00
2018-08-07T04:56:22.563Z,2596.00
2018-08-07T04:57:22.590Z,2620.00
2018-08-07T04:58:22.615Z,2648.00
2018-08-07T04:59:22.629Z,2672.00
2018-08-07T05:00:22.666Z,2696.00
2018-08-07T05:01:22.685Z,2724.00
2018-08-07T05:02:22.694Z,2744.00
2018-08-07T05:03:22.720Z,2772.00
2018-08-07T05:04:22.746Z,2792.00
2018-08-07T05:05:22.762Z,2816.00
2018-08-07T05:06:22.785Z,2840.00
2018-08-07T05:07:22.811Z,2860.00
2018-08-07T05:08:22.838Z,2884.00
2018-08-07T05:09:22.850Z,2904.00
2018-08-07T05:10:22.926Z,2924.00
2018-08-07T05:11:22.903Z,2948.00
2018-08-07T05:12:22.915Z,2972.00
2018-08-07T05:13:22.942Z,2992.00
2018-08-07T05:14:22.985Z,3012.00
2018-08-07T05:15:22.983Z,3032.00
2018-08-07T05:16:23.009Z,3060.00
2018-08-07T05:17:23.040Z,3080.00
2018-08-07T05:18:23.059Z,3100.00
2018-08-07T05:19:23.073Z,3132.00
2018-08-07T05:20:23.099Z,3152.00
2018-08-07T05:21:23.137Z,3176.00
2018-08-07T05:22:23.145Z,3196.00
2018-08-07T05:23:23.166Z,3228.00
2018-08-07T05:24:23.235Z,3244.00
2018-08-07T05:25:23.216Z,3268.00
2018-08-07T05:26:23.228Z,3288.00
2018-08-07T05:27:23.254Z,3308.00
2018-08-07T05:28:23.284Z,3332.00
2018-08-07T05:29:23.295Z,3356.00
2018-08-07T05:30:23.322Z,3376.00
2018-08-07T05:31:23.347Z,3400.00
2018-08-07T05:32:23.373Z,3420.00
2018-08-07T05:33:23.386Z,3444.00
2018-08-07T05:34:23.425Z,3472.00
2018-08-07T05:35:23.437Z,3492.00
2018-08-07T05:36:23.464Z,3516.00
2018-08-07T05:37:23.478Z,3544.00
2018-08-07T05:38:23.503Z,3572.00
2018-08-07T05:39:23.534Z,3796.00
2018-08-07T05:40:23.543Z,4096.00
2018-08-07T05:41:23.568Z,4916.00
2018-08-07T05:42:23.656Z,4780.00
2018-08-07T05:43:23.620Z,4200.00
2018-08-07T05:44:23.635Z,3844.00
2018-08-07T05:45:23.660Z,3772.00
2018-08-07T05:46:23.686Z,3820.00
2018-08-07T05:47:23.712Z,4336.00
2018-08-07T05:48:23.725Z,4304.00
2018-08-07T05:49:23.752Z,3820.00
2018-08-07T05:50:23.895Z,3816.00
2018-08-07T05:51:23.857Z,4132.00
2018-08-07T05:52:23.817Z,4272.00
2018-08-07T05:53:23.842Z,4460.00
2018-08-07T05:54:23.871Z,4300.00
2018-08-07T05:55:23.896Z,3972.00
2018-08-07T05:56:23.909Z,4856.00
2018-08-07T05:57:23.946Z,4876.00
2018-08-07T05:58:23.961Z,4344.00
2018-08-07T05:59:23.987Z,4488.00
2018-08-07T06:00:24.027Z,4280.00
2018-08-07T06:01:24.026Z,4396.00
2018-08-07T06:02:24.056Z,5572.00
2018-08-07T06:03:24.078Z,6168.00
2018-08-07T06:04:24.104Z,6160.00
2018-08-07T06:05:24.158Z,7844.00
2018-08-07T06:06:24.143Z,9248.00
2018-08-07T06:07:24.168Z,10780.00
2018-08-07T06:08:24.194Z,13012.00
2018-08-07T06:09:24.209Z,10692.00
2018-08-07T06:10:24.234Z,8184.00
2018-08-07T06:11:24.260Z,6844.00
2018-08-07T06:12:24.288Z,7636.00
2018-08-07T06:13:24.312Z,7404.00
2018-08-07T06:14:24.327Z,4936.00
2018-08-07T06:15:24.351Z,4992.00
2018-08-07T06:16:24.377Z,5240.00
2018-08-07T06:17:24.403Z,4972.00
2018-08-07T06:18:24.430Z,5368.00
2018-08-07T06:19:24.443Z,6560.00
2018-08-07T06:20:24.470Z,6184.00
2018-08-07T06:21:24.495Z,5824.00
2018-08-07T06:22:24.522Z,7000.00
2018-08-07T06:23:24.547Z,11868.00
2018-08-07T06:24:24.573Z,30528.00
2018-08-07T06:25:24.587Z,42784.00
2018-08-07T06:26:24.624Z,34816.00
2018-08-07T06:27:24.641Z,23584.00
2018-08-07T06:28:24.666Z,18144.00
2018-08-07T06:29:24.689Z,13028.00
2018-08-07T06:30:24.730Z,10852.00
2018-08-07T06:31:24.825Z,13428.00
2018-08-07T06:32:24.757Z,34336.00
2018-08-07T06:33:24.782Z,43904.00
2018-08-07T06:34:24.807Z,44640.00
2018-08-07T06:35:24.834Z,44768.00
2018-08-07T06:36:24.860Z,46368.00
2018-08-07T06:37:24.887Z,48736.00
2018-08-07T06:38:24.915Z,50880.00
2018-08-07T06:39:24.936Z,50752.00
2018-08-07T06:40:24.963Z,49152.00
2018-08-07T06:41:24.989Z,50624.00
2018-08-07T06:42:25.016Z,49696.00
2018-08-07T06:43:25.042Z,49600.00
2018-08-07T06:44:25.067Z,47616.00
2018-08-07T06:45:25.093Z,44800.00
2018-08-07T06:46:25.131Z,43008.00
2018-08-07T06:47:25.170Z,42048.00
2018-08-07T06:48:25.183Z,43840.00
2018-08-07T06:49:25.230Z,42400.00
2018-08-07T06:50:25.235Z,38432.00
2018-08-07T06:51:25.261Z,41792.00
2018-08-07T06:52:25.289Z,37344.00
2018-08-07T06:53:25.331Z,30624.00
2018-08-07T06:54:25.351Z,31040.00
2018-08-07T06:55:25.379Z,31776.00
2018-08-07T06:56:25.404Z,31840.00
2018-08-07T06:57:25.441Z,32032.00
2018-08-07T06:58:25.467Z,34368.00
2018-08-07T06:59:25.494Z,35776.00
2018-08-07T07:00:25.532Z,36160.00
2018-08-07T07:01:25.558Z,41024.00
2018-08-07T07:02:25.585Z,45984.00
2018-08-07T07:03:25.625Z,48768.00
2018-08-07T07:04:25.648Z,49376.00
2018-08-07T07:05:25.674Z,49568.00
2018-08-07T07:06:25.712Z,51168.00
2018-08-07T07:07:25.739Z,48992.00
2018-08-07T07:08:25.776Z,49312.00
2018-08-07T07:09:25.862Z,52512.00
2018-08-07T07:10:25.841Z,53344.00
2018-08-07T07:11:25.867Z,54944.00
2018-08-07T07:12:25.893Z,55680.00
2018-08-07T07:13:25.933Z,55488.00
2018-08-07T07:14:25.957Z,53728.00
2018-08-07T07:15:25.996Z,53184.00
2018-08-07T07:16:26.023Z,55392.00
2018-08-07T07:17:26.060Z,56480.00
2018-08-07T07:18:26.086Z,55008.00
2018-08-07T07:19:26.124Z,53504.00
2018-08-07T07:20:26.153Z,54144.00
2018-08-07T07:21:26.188Z,58624.00
2018-08-07T07:22:26.217Z,58144.00
2018-08-07T07:23:26.253Z,56672.00
2018-08-07T07:24:26.291Z,56000.00
2018-08-07T07:25:26.317Z,58336.00
2018-08-07T07:26:26.356Z,61472.00
2018-08-07T07:27:26.385Z,60544.00
2018-08-07T07:28:26.421Z,60384.00
2018-08-07T07:29:26.461Z,62560.00
2018-08-07T07:30:26.487Z,65600.00
2018-08-07T07:31:26.536Z,64576.00
2018-08-07T07:32:26.549Z,61568.00
2018-08-07T07:33:26.589Z,60832.00
2018-08-07T07:34:26.657Z,63776.00
2018-08-07T07:35:26.652Z,62848.00
2018-08-07T07:36:26.693Z,61216.00
2018-08-07T07:37:26.730Z,65152.00
2018-08-07T07:38:26.767Z,64384.00
2018-08-07T07:39:26.794Z,61536.00
2018-08-07T07:40:26.832Z,63328.00
2018-08-07T07:41:26.857Z,65248.00
2018-08-07T07:42:26.896Z,63552.00
2018-08-07T07:43:26.935Z,62432.00
2018-08-07T07:44:26.962Z,63552.00
2018-08-07T07:45:27.000Z,64960.00
2018-08-07T07:46:27.038Z,66784.00
2018-08-07T07:47:27.077Z,66880.00
2018-08-07T07:48:27.104Z,65728.00
2018-08-07T07:49:27.143Z,65088.00
2018-08-07T07:50:27.180Z,67616.00
2018-08-07T07:51:27.228Z,66848.00
2018-08-07T07:52:27.256Z,66816.00
2018-08-07T07:53:27.283Z,69152.00
2018-08-07T07:54:27.320Z,68832.00
2018-08-07T07:55:27.360Z,64256.00
2018-08-07T07:56:27.385Z,62944.00
2018-08-07T07:57:27.423Z,64160.00
2018-08-07T07:58:27.462Z,64832.00
2018-08-07T07:59:27.513Z,66272.00
2018-08-07T08:00:27.542Z,68096.00
2018-08-07T08:01:27.577Z,66464.00
2018-08-07T08:02:27.603Z,67584.00
2018-08-07T08:03:27.643Z,65984.00
2018-08-07T08:04:27.680Z,66880.00
2018-08-07T08:05:27.754Z,68736.00
2018-08-07T08:06:27.757Z,68544.00
2018-08-07T08:07:27.796Z,68160.00
2018-08-07T08:08:27.836Z,71584.00
2018-08-07T08:09:27.860Z,71872.00
2018-08-07T08:10:27.899Z,67520.00
2018-08-07T08:11:27.937Z,71104.00
2018-08-07T08:12:27.976Z,72672.00
2018-08-07T08:13:28.015Z,72256.00
2018-08-07T08:14:28.053Z,70464.00
2018-08-07T08:15:28.104Z,70368.00
2018-08-07T08:16:28.148Z,69088.00
2018-08-07T08:17:28.168Z,66912.00
2018-08-07T08:18:28.208Z,66624.00
2018-08-07T08:19:28.245Z,64832.00
2018-08-07T08:20:28.273Z,58496.00
2018-08-07T08:21:28.310Z,31776.00
2018-08-07T08:22:28.348Z,8476.00
2018-08-07T08:23:28.386Z,6996.00
2018-08-07T08:24:28.426Z,6976.00
2018-08-07T08:25:28.464Z,6980.00
2018-08-07T08:26:28.501Z,6972.00
2018-08-07T08:27:28.540Z,6952.00
2018-08-07T08:28:28.591Z,6936.00
2018-08-07T08:29:28.688Z,6900.00
2018-08-07T08:30:28.644Z,6852.00
2018-08-07T08:31:28.681Z,6836.00
2018-08-07T08:32:28.720Z,6860.00
2018-08-07T08:33:28.751Z,6896.00
2018-08-07T08:34:28.784Z,6916.00
2018-08-07T08:35:28.853Z,6912.00
2018-08-07T08:36:28.851Z,6916.00
2018-08-07T08:37:28.887Z,6948.00
2018-08-07T08:38:28.927Z,6972.00
2018-08-07T08:39:28.952Z,6984.00
2018-08-07T08:40:28.989Z,6988.00
2018-08-07T08:41:29.015Z,6988.00
2018-08-07T08:42:29.054Z,6996.00
2018-08-07T08:43:29.080Z,7020.00
2018-08-07T08:44:29.120Z,7032.00
2018-08-07T08:45:29.144Z,7032.00
2018-08-07T08:46:29.183Z,7024.00
2018-08-07T08:47:29.210Z,7028.00
2018-08-07T08:48:29.265Z,7068.00
2018-08-07T08:49:29.273Z,7080.00
2018-08-07T08:50:29.313Z,7096.00
2018-08-07T08:51:29.339Z,7104.00
2018-08-07T08:52:29.377Z,7100.00
2018-08-07T08:53:29.402Z,7100.00
2018-08-07T08:54:29.431Z,7112.00
2018-08-07T08:55:29.466Z,7124.00
2018-08-07T08:56:29.498Z,7140.00
2018-08-07T08:57:29.530Z,7168.00
2018-08-07T08:58:29.558Z,7196.00
2018-08-07T08:59:29.584Z,7208.00
2018-08-07T09:00:29.621Z,7216.00
2018-08-07T09:01:29.648Z,7212.00
2018-08-07T09:02:29.685Z,7212.00
2018-08-07T09:03:29.713Z,7236.00
2018-08-07T09:04:29.739Z,7248.00
2018-08-07T09:05:29.779Z,7268.00
2018-08-07T09:06:29.802Z,7296.00
2018-08-07T09:07:29.840Z,7312.00
2018-08-07T09:08:29.866Z,7328.00
2018-08-07T09:09:29.892Z,7364.00
2018-08-07T09:10:30.041Z,7384.00
2018-08-07T09:11:29.964Z,7388.00
2018-08-07T09:12:29.987Z,7396.00
2018-08-07T09:13:30.022Z,7408.00
2018-08-07T09:14:30.053Z,7436.00
2018-08-07T09:15:30.074Z,7464.00
2018-08-07T09:16:30.112Z,7492.00
2018-08-07T09:17:30.137Z,7528.00
2018-08-07T09:18:30.189Z,7564.00
2018-08-07T09:19:30.229Z,7592.00
2018-08-07T09:20:30.228Z,7624.00
2018-08-07T09:21:30.267Z,7652.00
2018-08-07T09:22:30.292Z,7676.00
2018-08-07T09:23:30.319Z,7704.00
2018-08-07T09:24:30.356Z,7708.00
2018-08-07T09:25:30.497Z,7708.00
2018-08-07T09:26:30.414Z,7664.00
2018-08-07T09:27:30.448Z,7604.00
2018-08-07T09:28:30.474Z,7620.00
2018-08-07T09:29:30.510Z,7744.00
2018-08-07T09:30:30.538Z,7860.00
2018-08-07T09:31:30.564Z,7924.00
2018-08-07T09:32:30.603Z,7972.00
2018-08-07T09:33:30.631Z,8012.00
2018-08-07T09:34:30.654Z,8056.00
2018-08-07T09:35:30.696Z,8112.00
2018-08-07T09:36:30.717Z,8164.00
2018-08-07T09:37:30.744Z,8224.00
2018-08-07T09:38:30.783Z,8280.00
2018-08-07T09:39:30.823Z,8360.00
2018-08-07T09:40:30.834Z,8388.00
2018-08-07T09:41:30.872Z,8428.00
2018-08-07T09:42:30.899Z,8476.00
2018-08-07T09:43:30.938Z,8556.00
2018-08-07T09:44:30.964Z,8644.00
2018-08-07T09:45:30.989Z,8728.00
2018-08-07T09:46:31.096Z,8848.00
2018-08-07T09:47:31.065Z,8944.00
2018-08-07T09:48:31.080Z,9044.00
2018-08-07T09:49:31.119Z,9156.00
2018-08-07T09:50:31.151Z,9308.00
2018-08-07T09:51:31.182Z,9492.00
2018-08-07T09:52:31.209Z,9764.00
2018-08-07T09:53:31.234Z,12428.00
2018-08-07T09:54:31.273Z,33824.00
2018-08-07T09:55:31.298Z,62944.00
2018-08-07T09:56:31.337Z,82464.00
2018-08-07T09:57:31.364Z,81984.00
2018-08-07T09:58:31.394Z,60768.00
2018-08-07T09:59:31.428Z,32896.00
2018-08-07T10:00:31.454Z,34880.00
2018-08-07T10:01:31.492Z,65792.00
2018-08-07T10:02:31.517Z,86016.00
2018-08-07T10:03:31.560Z,84608.00
2018-08-07T10:04:31.594Z,75232.00
2018-08-07T10:05:31.677Z,47552.00
2018-08-07T10:06:31.659Z,29856.00
2018-08-07T10:07:31.686Z,50464.00
2018-08-07T10:08:31.726Z,77760.00
2018-08-07T10:09:31.763Z,82400.00
2018-08-07T10:10:31.800Z,67200.00
2018-08-07T10:11:31.825Z,26656.00
2018-08-07T10:12:31.919Z,9640.00
2018-08-07T10:13:31.903Z,10456.00
2018-08-07T10:14:31.943Z,29888.00
2018-08-07T10:15:31.982Z,60512.00
2018-08-07T10:16:32.006Z,81056.00
2018-08-07T10:17:32.044Z,84096.00
2018-08-07T10:18:32.083Z,84992.00
2018-08-07T10:19:32.124Z,85728.00
2018-08-07T10:20:32.160Z,88704.00
2018-08-07T10:21:32.199Z,87808.00
2018-08-07T10:22:32.236Z,84416.00
2018-08-07T10:23:32.276Z,82560.00
2018-08-07T10:24:32.313Z,84384.00
2018-08-07T10:25:32.352Z,87552.00
2018-08-07T10:26:32.389Z,85984.00
2018-08-07T10:27:32.430Z,83360.00
2018-08-07T10:28:32.467Z,81824.00
2018-08-07T10:29:32.506Z,82560.00
2018-08-07T10:30:32.550Z,85344.00
2018-08-07T10:31:32.582Z,85696.00
2018-08-07T10:32:32.621Z,85600.00
2018-08-07T10:33:32.672Z,84256.00
2018-08-07T10:34:32.711Z,85088.00
2018-08-07T10:35:32.749Z,85216.00
2018-08-07T10:36:32.789Z,84704.00
2018-08-07T10:37:32.838Z,84416.00
2018-08-07T10:38:32.877Z,82752.00
2018-08-07T10:39:32.919Z,79808.00
2018-08-07T10:40:33.022Z,80192.00
2018-08-07T10:41:33.004Z,82976.00
2018-08-07T10:42:33.045Z,81056.00
2018-08-07T10:43:33.203Z,78912.00
2018-08-07T10:44:33.132Z,77664.00
2018-08-07T10:45:33.182Z,78144.00
2018-08-07T10:46:33.308Z,78144.00
2018-08-07T10:47:33.298Z,79552.00
2018-08-07T10:48:33.312Z,80032.00
2018-08-07T10:49:33.352Z,82112.00
2018-08-07T10:50:33.388Z,82624.00
2018-08-07T10:51:33.439Z,80064.00
2018-08-07T10:52:33.478Z,79232.00
2018-08-07T10:53:33.540Z,80608.00
2018-08-07T10:54:33.567Z,81248.00
2018-08-07T10:55:33.618Z,82560.00
2018-08-07T10:56:33.689Z,82080.00
2018-08-07T10:57:33.708Z,81088.00
2018-08-07T10:58:33.745Z,80352.00
2018-08-07T10:59:33.809Z,78688.00
2018-08-07T11:00:33.842Z,76224.00
2018-08-07T11:01:33.886Z,74112.00
2018-08-07T11:02:33.924Z,76768.00
2018-08-07T11:03:33.975Z,78752.00
2018-08-07T11:04:34.014Z,80960.00
2018-08-07T11:05:34.065Z,80384.00
2018-08-07T11:06:34.117Z,75968.00
2018-08-07T11:07:34.155Z,73408.00
2018-08-07T11:08:34.206Z,77056.00
2018-08-07T11:09:34.245Z,85248.00
2018-08-07T11:10:34.295Z,88224.00
2018-08-07T11:11:34.347Z,85760.00
2018-08-07T11:12:34.385Z,85184.00
2018-08-07T11:13:34.450Z,83680.00
2018-08-07T11:14:34.474Z,83264.00
2018-08-07T11:15:34.527Z,82496.00
2018-08-07T11:16:34.579Z,85152.00
2018-08-07T11:17:34.614Z,85536.00
2018-08-07T11:18:34.664Z,84224.00
2018-08-07T11:19:34.716Z,83424.00
2018-08-07T11:20:34.754Z,81856.00
2018-08-07T11:21:34.806Z,79616.00
2018-08-07T11:22:34.857Z,80288.00
2018-08-07T11:23:34.895Z,79424.00
2018-08-07T11:24:34.984Z,80864.00
2018-08-07T11:25:34.996Z,82656.00
2018-08-07T11:26:35.038Z,85056.00
2018-08-07T11:27:35.086Z,85376.00
2018-08-07T11:28:35.137Z,87296.00
2018-08-07T11:29:35.176Z,84768.00
2018-08-07T11:30:35.226Z,83616.00
2018-08-07T11:31:35.276Z,84800.00
2018-08-07T11:32:35.316Z,85440.00
2018-08-07T11:33:35.368Z,86112.00
2018-08-07T11:34:35.419Z,89088.00
2018-08-07T11:35:35.458Z,87360.00
2018-08-07T11:36:35.509Z,89024.00
2018-08-07T11:37:35.560Z,88448.00
2018-08-07T11:38:35.609Z,87392.00
2018-08-07T11:39:35.649Z,88480.00
2018-08-07T11:40:35.700Z,89696.00
2018-08-07T11:41:35.756Z,90848.00
2018-08-07T11:42:35.789Z,91584.00
2018-08-07T11:43:35.839Z,89120.00
2018-08-07T11:44:35.889Z,86208.00
2018-08-07T11:45:35.942Z,83712.00
2018-08-07T11:46:35.981Z,84672.00
2018-08-07T11:47:36.031Z,86048.00
2018-08-07T11:48:36.082Z,85280.00
2018-08-07T11:49:36.134Z,85536.00
2018-08-07T11:50:36.172Z,85280.00
2018-08-07T11:51:36.221Z,82048.00
2018-08-07T11:52:36.272Z,81120.00
2018-08-07T11:53:36.313Z,84000.00
2018-08-07T11:54:36.363Z,85792.00
2018-08-07T11:55:36.414Z,86464.00
2018-08-07T11:56:36.465Z,86112.00
2018-08-07T11:57:36.502Z,84288.00
2018-08-07T11:58:36.553Z,83968.00
2018-08-07T11:59:36.604Z,87424.00
2018-08-07T12:00:36.643Z,89376.00
2018-08-07T12:01:36.694Z,87936.00
2018-08-07T12:02:36.745Z,85472.00
2018-08-07T12:03:36.796Z,84704.00
2018-08-07T12:04:36.834Z,87008.00
2018-08-07T12:05:36.884Z,87456.00
2018-08-07T12:06:36.936Z,83456.00
2018-08-07T12:07:36.975Z,80800.00
2018-08-07T12:08:37.030Z,83680.00
2018-08-07T12:09:37.077Z,84512.00
2018-08-07T12:10:37.128Z,86048.00
2018-08-07T12:11:37.165Z,83744.00
2018-08-07T12:12:37.220Z,79680.00
2018-08-07T12:13:37.269Z,76224.00
2018-08-07T12:14:37.318Z,79776.00
2018-08-07T12:15:37.358Z,80192.00
2018-08-07T12:16:37.409Z,80736.00
2018-08-07T12:17:37.459Z,80512.00